Time;durP1;ratioP1;P1;durP2;ratioP2;P2;SDS_P1;SDS_P2;PMS_P1;PMS_P2;Temp;Humidity;BMP_temperature;BMP_pressure;BME280_temperature;BME280_humidity;BME280_pressure;Samples;Min_cycle;Max_cycle;Signal;HPM_P1;HPM_P2
2022/07/25 00:00:30;;;;;;;11.73;8.90;;;27.70;45.80;;;;;;5120839;27;20453;-89
2022/07/25 00:02:57;;;;;;;12.07;9.20;;;27.70;46.00;;;;;;5098295;27;20809;-88
2022/07/25 00:05:24;;;;;;;13.60;9.20;;;27.70;46.10;;;;;;5099245;27;20799;-89
2022/07/25 00:07:51;;;;;;;12.43;9.33;;;27.60;47.10;;;;;;5088281;27;21133;-88
2022/07/25 00:10:18;;;;;;;9.70;8.80;;;27.60;46.70;;;;;;5120909;27;20483;-89
2022/07/25 00:12:46;;;;;;;16.33;10.00;;;27.50;46.90;;;;;;5122780;27;20476;-88
2022/07/25 00:16:04;;;;;;;10.83;9.70;;;27.50;47.00;;;;;;5101994;27;20543;-88
2022/07/25 00:18:58;;;;;;;18.40;9.87;;;27.50;47.20;;;;;;5111327;27;20451;-88
2022/07/25 00:21:25;;;;;;;10.87;8.93;;;27.40;47.30;;;;;;5117931;27;20524;-88
2022/07/25 00:23:52;;;;;;;10.97;9.83;;;27.40;47.00;;;;;;5120742;27;20465;-88
2022/07/25 00:26:19;;;;;;;11.53;9.83;;;27.30;46.60;;;;;;5119026;27;20563;-88
2022/07/25 00:28:46;;;;;;;11.00;9.07;;;27.30;46.40;;;;;;5103017;27;20520;-88
2022/07/25 00:31:13;;;;;;;12.50;9.70;;;27.30;46.20;;;;;;5105306;27;20468;-89
2022/07/25 00:36:58;;;;;;;11.83;9.97;;;27.20;46.50;;;;;;5105279;27;20465;-88
2022/07/25 00:39:26;;;;;;;10.10;9.00;;;27.20;46.60;;;;;;5119013;27;20449;-88
2022/07/25 00:41:53;;;;;;;10.90;8.67;;;27.10;46.70;;;;;;5109407;27;20951;-89
2022/07/25 00:44:24;;;;;;;10.90;9.27;;;27.10;46.90;;;;;;5103164;27;20544;-88
2022/07/25 00:46:52;;;;;;;11.50;9.20;;;27.00;47.00;;;;;;5123441;27;21020;-88
2022/07/25 00:49:19;;;;;;;10.23;9.13;;;27.00;47.40;;;;;;5086727;27;20446;-88
2022/07/25 00:51:46;;;;;;;10.57;9.13;;;26.90;47.50;;;;;;5097919;27;20494;-88
2022/07/25 00:54:16;;;;;;;10.80;9.70;;;27.00;47.60;;;;;;5088730;27;20469;-89
2022/07/25 00:56:44;;;;;;;11.70;9.17;;;26.90;47.60;;;;;;5123143;27;20455;-89
2022/07/25 00:59:11;;;;;;;14.67;9.80;;;26.90;47.80;;;;;;5097353;27;20438;-88
2022/07/25 01:02:29;;;;;;;10.73;9.63;;;26.80;47.90;;;;;;5108612;27;20453;-89
2022/07/25 01:04:57;;;;;;;12.57;10.30;;;26.80;48.00;;;;;;5084857;27;21356;-88
2022/07/25 01:07:25;;;;;;;10.83;9.77;;;26.70;48.50;;;;;;5101826;27;20513;-88
2022/07/25 01:09:54;;;;;;;11.93;9.80;;;26.60;48.80;;;;;;5089037;27;20645;-87
2022/07/25 01:12:21;;;;;;;11.60;10.40;;;26.60;49.10;;;;;;5085702;27;20492;-89
2022/07/25 01:14:48;;;;;;;12.20;9.60;;;26.60;49.20;;;;;;5107040;27;20636;-88
2022/07/25 01:17:15;;;;;;;11.50;9.20;;;26.60;49.10;;;;;;5121343;27;20464;-89
2022/07/25 01:19:42;;;;;;;10.67;9.57;;;26.60;48.80;;;;;;5122132;27;20449;-88
2022/07/25 01:25:02;;;;;;;10.83;9.53;;;26.50;48.60;;;;;;5099307;27;20481;-88
2022/07/25 01:27:29;;;;;;;13.17;9.60;;;26.50;48.50;;;;;;5140528;27;20653;-88
2022/07/25 01:30:22;;;;;;;13.40;10.77;;;26.40;48.30;;;;;;5105774;27;20543;-88
2022/07/25 01:32:49;;;;;;;14.67;9.80;;;26.40;48.40;;;;;;5105736;27;20467;-87
2022/07/25 01:35:16;;;;;;;16.07;10.17;;;26.40;48.50;;;;;;5105681;27;20441;-89
2022/07/25 01:37:45;;;;;;;11.20;10.10;;;26.40;48.90;;;;;;5122162;27;20576;-88
2022/07/25 01:40:15;;;;;;;11.40;10.13;;;26.20;48.80;;;;;;5102840;27;21177;-89
2022/07/25 01:42:42;;;;;;;12.67;11.03;;;26.10;48.60;;;;;;5100646;27;20561;-89
2022/07/25 01:45:11;;;;;;;11.03;9.20;;;26.20;48.50;;;;;;5107410;27;20440;-87
2022/07/25 01:47:38;;;;;;;11.57;10.47;;;26.20;48.40;;;;;;5125734;27;20456;-88
2022/07/25 01:50:30;;;;;;;10.07;9.07;;;26.20;48.50;;;;;;5123584;27;21301;-88
2022/07/25 01:52:58;;;;;;;12.17;10.30;;;26.10;48.70;;;;;;5120370;27;20461;-88
2022/07/25 01:55:25;;;;;;;12.90;10.43;;;26.10;48.50;;;;;;5137161;27;20787;-87
2022/07/25 02:00:47;;;;;;;16.00;9.93;;;26.10;48.70;;;;;;5121858;27;20441;-89
2022/07/25 02:03:32;;;;;;;12.53;10.27;;;26.00;49.00;;;;;;5105665;27;20533;-89
2022/07/25 02:06:01;;;;;;;13.07;9.60;;;26.00;49.00;;;;;;5122970;27;20457;-88
2022/07/25 02:08:29;;;;;;;11.43;10.23;;;26.00;49.00;;;;;;5099670;27;20484;-88
2022/07/25 02:10:57;;;;;;;11.53;10.33;;;26.00;49.10;;;;;;5106267;27;20934;-88
2022/07/25 02:13:25;;;;;;;11.07;9.63;;;26.00;49.20;;;;;;5131281;27;21007;-88
2022/07/25 02:15:52;;;;;;;15.33;10.90;;;26.00;49.20;;;;;;5107600;27;20478;-88
2022/07/25 02:18:19;;;;;;;12.43;9.80;;;25.90;49.10;;;;;;5137118;27;20955;-88
2022/07/25 02:20:46;;;;;;;10.33;9.23;;;25.90;48.90;;;;;;5102814;27;20475;-88
2022/07/25 02:23:13;;;;;;;15.90;11.50;;;25.90;49.20;;;;;;5121353;27;20475;-88
2022/07/25 02:25:41;;;;;;;13.30;10.10;;;25.80;49.30;;;;;;5118950;27;20461;-88
2022/07/25 02:28:34;;;;;;;11.10;9.90;;;25.80;49.50;;;;;;5087044;27;20445;-88
2022/07/25 02:31:01;;;;;;;11.10;9.97;;;25.80;49.60;;;;;;5082123;27;20816;-88
2022/07/25 02:33:28;;;;;;;12.30;11.03;;;25.70;50.70;;;;;;5105380;27;20473;-88
2022/07/25 02:35:55;;;;;;;13.10;10.00;;;25.70;50.30;;;;;;5105286;27;20480;-90
2022/07/25 02:38:22;;;;;;;14.20;9.63;;;25.60;50.50;;;;;;5089527;27;20953;-88
2022/07/25 02:40:52;;;;;;;12.43;11.10;;;25.60;50.70;;;;;;5144677;27;20512;-88
2022/07/25 03:02:59;;;;;;;13.20;11.80;;;25.20;51.50;;;;;;5111369;27;20473;-89
2022/07/25 03:05:26;;;;;;;16.73;12.03;;;25.20;51.00;;;;;;5122835;27;20489;-88
2022/07/25 03:17:48;;;;;;;13.20;10.70;;;24.90;51.40;;;;;;5141130;27;20889;-88
2022/07/25 03:21:06;;;;;;;12.83;11.37;;;25.00;51.40;;;;;;5095759;27;20456;-87
2022/07/25 03:28:08;;;;;;;11.97;10.40;;;25.00;51.30;;;;;;5121716;27;21212;-87
2022/07/25 03:31:27;;;;;;;13.10;11.10;;;25.00;51.20;;;;;;5139533;27;20437;-88
2022/07/25 03:34:20;;;;;;;11.70;10.30;;;25.00;51.00;;;;;;5105213;27;20445;-88
2022/07/25 03:36:47;;;;;;;11.93;10.53;;;25.00;51.30;;;;;;5126312;27;20444;-88
2022/07/25 03:43:46;;;;;;;14.60;10.90;;;24.90;51.40;;;;;;5142835;27;20441;-89
2022/07/25 03:46:13;;;;;;;13.30;10.17;;;24.90;51.50;;;;;;5123437;27;20828;-88
2022/07/25 03:59:22;;;;;;;12.00;10.73;;;24.20;53.40;;;;;;5119289;27;20452;-90
2022/07/25 04:01:50;;;;;;;15.97;11.10;;;24.20;53.00;;;;;;5128402;27;20433;-90
2022/07/25 04:14:11;;;;;;;14.03;10.97;;;24.30;52.20;;;;;;5143553;27;20481;-90
2022/07/25 04:36:01;;;;;;;11.43;10.20;;;24.60;53.30;;;;;;5114068;27;20439;-89
2022/07/25 04:38:28;;;;;;;14.17;10.30;;;24.60;53.10;;;;;;5114468;27;20842;-89
2022/07/25 04:41:45;;;;;;;15.70;11.37;;;24.60;54.00;;;;;;5131751;27;20519;-89
2022/07/25 05:01:08;;;;;;;15.17;11.33;;;24.30;54.20;;;;;;5153004;27;20500;-90
2022/07/25 05:03:35;;;;;;;13.50;11.40;;;24.30;54.40;;;;;;5110273;27;20464;-90
2022/07/25 05:06:02;;;;;;;13.60;11.03;;;24.30;54.40;;;;;;5114202;27;20468;-90
2022/07/25 05:17:12;;;;;;;15.93;10.90;;;24.60;54.20;;;;;;5129534;27;20429;-90
2022/07/25 05:19:39;;;;;;;14.17;11.60;;;24.60;54.10;;;;;;5132854;27;20459;-89
2022/07/25 05:26:13;;;;;;;13.73;11.17;;;24.60;53.80;;;;;;5125567;27;20432;-88
2022/07/25 05:28:40;;;;;;;16.80;11.20;;;24.50;54.10;;;;;;5106008;27;20525;-88
2022/07/25 05:35:40;;;;;;;13.17;10.80;;;24.70;54.00;;;;;;5053972;27;20785;-90
2022/07/25 05:42:15;;;;;;;17.30;11.20;;;24.70;54.20;;;;;;5111674;27;21563;-91
2022/07/25 05:44:42;;;;;;;14.33;11.23;;;24.70;54.30;;;;;;5101357;27;20815;-89
2022/07/25 06:07:13;;;;;;;23.33;15.00;;;24.90;54.50;;;;;;5149447;27;20437;-88
2022/07/25 06:09:41;;;;;;;14.83;11.67;;;24.90;54.70;;;;;;5127070;27;20455;-89
2022/07/25 06:18:40;;;;;;;11.53;10.07;;;25.70;52.70;;;;;;5127073;27;20459;-90
2022/07/25 06:21:07;;;;;;;18.67;10.53;;;26.10;52.50;;;;;;5127381;27;20449;-85
2022/07/25 06:31:48;;;;;;;23.43;10.97;;;26.20;51.60;;;;;;5143582;27;20936;-88
2022/07/25 06:38:22;;;;;;;17.13;10.83;;;26.00;51.50;;;;;;5108929;27;20432;-88
2022/07/25 06:40:49;;;;;;;18.80;11.00;;;26.00;51.70;;;;;;5104689;27;20443;-88
2022/07/25 06:58:54;;;;;;;30.63;10.27;;;27.60;47.10;;;;;;5141474;27;20425;-88
2022/07/25 07:33:08;;;;;;;19.77;9.33;;;27.90;47.90;;;;;;5139515;27;20464;-87
2022/07/25 07:48:48;;;;;;;14.80;10.20;;;29.70;44.80;;;;;;5125612;27;20528;-87
2022/07/25 07:51:15;;;;;;;17.07;10.30;;;29.90;44.30;;;;;;5140744;27;20525;-88
2022/07/25 07:58:38;;;;;;;18.77;10.37;;;29.50;44.40;;;;;;5145503;27;20425;-87
2022/07/25 08:05:42;;;;;;;14.83;8.70;;;30.20;43.40;;;;;;5123976;27;20436;-87
2022/07/25 08:08:10;;;;;;;21.60;10.70;;;30.20;43.70;;;;;;5116000;27;20456;-86
2022/07/25 08:11:27;;;;;;;16.20;10.67;;;30.30;43.70;;;;;;5123760;27;20539;-87
2022/07/25 08:18:52;;;;;;;15.53;9.67;;;30.90;42.80;;;;;;5144254;27;21056;-86
2022/07/25 08:25:27;;;;;;;14.90;8.83;;;31.50;41.80;;;;;;5142576;27;21123;-87
2022/07/25 08:27:54;;;;;;;12.13;9.83;;;31.70;41.60;;;;;;5144823;27;20445;-87
2022/07/25 09:10:49;;;;;;;12.53;8.73;;;33.90;36.20;;;;;;5142491;27;20466;-87
2022/07/25 09:13:19;;;;;;;9.47;8.57;;;34.10;35.40;;;;;;5142389;27;20468;-87
2022/07/25 09:16:36;;;;;;;8.70;7.90;;;34.10;35.40;;;;;;5143895;27;20472;-87
2022/07/25 09:40:35;;;;;;;8.80;7.73;;;35.90;30.40;;;;;;5122825;27;20743;-88
2022/07/25 09:43:52;;;;;;;8.00;7.30;;;36.00;29.90;;;;;;5142515;27;21136;-87
2022/07/25 09:50:52;;;;;;;9.07;8.00;;;36.00;28.80;;;;;;5124046;27;20443;-87
2022/07/25 10:13:02;;;;;;;8.23;7.53;;;37.50;26.80;;;;;;5144202;27;20560;-87
2022/07/25 10:15:43;;;;;;;14.70;8.13;;;37.30;27.50;;;;;;5125173;27;20496;-87
2022/07/25 10:26:30;;;;;;;7.83;7.03;;;38.00;27.10;;;;;;5144803;27;20420;-88
2022/07/25 10:33:12;;;;;;;7.67;7.03;;;38.20;26.20;;;;;;5124701;27;20460;-87
2022/07/25 10:35:39;;;;;;;8.43;7.10;;;38.20;27.10;;;;;;5117157;27;20453;-87
2022/07/25 10:42:16;;;;;;;7.33;6.73;;;38.40;26.00;;;;;;5143232;27;20432;-89
2022/07/25 10:57:15;;;;;;;7.23;6.53;;;38.30;23.80;;;;;;5107029;27;20405;-87
2022/07/25 11:12:32;;;;;;;7.93;5.73;;;38.70;23.70;;;;;;5122561;27;20456;-86
2022/07/25 11:27:49;;;;;;;6.77;6.20;;;39.30;23.40;;;;;;5137052;27;20440;-85
2022/07/25 11:34:25;;;;;;;7.00;6.30;;;38.70;24.10;;;;;;5138991;27;20990;-88
2022/07/25 11:36:56;;;;;;;6.60;6.00;;;38.90;24.80;;;;;;5137703;27;21053;-87
2022/07/25 11:43:31;;;;;;;6.87;6.30;;;39.10;24.10;;;;;;5141729;27;20451;-87
2022/07/25 11:46:00;;;;;;;6.83;6.23;;;39.00;23.20;;;;;;5143559;27;20449;-87
2022/07/25 12:15:44;;;;;;;6.57;5.83;;;38.80;24.10;;;;;;5135486;27;20480;-88
2022/07/25 12:18:12;;;;;;;7.10;6.40;;;38.90;24.20;;;;;;5141095;27;20459;-88
2022/07/25 12:21:29;;;;;;;7.00;6.40;;;39.30;23.90;;;;;;5140495;27;20445;-87
2022/07/25 12:28:59;;;;;;;6.07;5.57;;;39.70;23.80;;;;;;5144806;27;20443;-88
2022/07/25 13:04:47;;;;;;;6.23;5.73;;;38.50;24.10;;;;;;5127773;27;21051;-89
2022/07/25 13:15:29;;;;;;;6.93;6.23;;;38.80;24.00;;;;;;5139396;27;20447;-87
2022/07/25 13:17:57;;;;;;;6.90;6.17;;;38.90;24.10;;;;;;5144973;27;20533;-89
2022/07/25 13:21:15;;;;;;;5.50;5.03;;;38.60;23.40;;;;;;5141599;27;20448;-88
2022/07/25 13:43:53;;;;;;;6.93;6.20;;;38.60;25.30;;;;;;5126624;27;20453;-88
2022/07/25 13:46:21;;;;;;;6.87;6.33;;;38.40;24.60;;;;;;5125174;27;20456;-88
2022/07/25 13:48:48;;;;;;;7.10;6.47;;;38.20;24.30;;;;;;5123005;27;20452;-88
2022/07/25 13:54:59;;;;;;;6.87;6.30;;;38.00;24.90;;;;;;5138561;27;20939;-88
2022/07/25 13:57:27;;;;;;;6.13;5.53;;;38.20;24.50;;;;;;5140646;27;20821;-88
2022/07/25 13:59:54;;;;;;;6.90;6.30;;;38.40;24.60;;;;;;5139716;27;20472;-86
2022/07/25 14:02:21;;;;;;;7.97;7.17;;;38.50;24.40;;;;;;5140950;27;20556;-89
2022/07/25 14:04:48;;;;;;;6.80;5.90;;;38.50;23.70;;;;;;5145226;27;20441;-89
2022/07/25 14:07:15;;;;;;;6.87;6.27;;;38.40;23.80;;;;;;5123473;27;20496;-88
2022/07/25 14:09:42;;;;;;;6.70;6.10;;;38.30;24.70;;;;;;5138341;27;20936;-88
2022/07/25 14:15:02;;;;;;;7.93;7.23;;;39.00;24.40;;;;;;5139852;27;20475;-88
2022/07/25 14:18:20;;;;;;;7.33;6.63;;;39.10;24.30;;;;;;5117883;27;20969;-89
2022/07/25 14:20:47;;;;;;;7.20;6.50;;;38.80;24.40;;;;;;5143315;27;21441;-87
2022/07/25 14:23:14;;;;;;;7.63;6.97;;;38.30;24.70;;;;;;5124362;27;20461;-87
2022/07/25 14:25:41;;;;;;;8.00;7.30;;;38.00;24.70;;;;;;5139500;27;20553;-87
2022/07/25 14:31:00;;;;;;;7.97;7.37;;;37.40;25.90;;;;;;5114148;27;20866;-87
2022/07/25 14:33:27;;;;;;;7.23;6.63;;;37.40;26.30;;;;;;5123254;27;20476;-87
2022/07/25 14:35:54;;;;;;;7.50;6.80;;;37.40;26.00;;;;;;5125942;27;20448;-87
2022/07/25 14:38:21;;;;;;;7.70;6.97;;;37.50;26.20;;;;;;5138063;27;20465;-87
2022/07/25 14:40:47;;;;;;;7.33;6.73;;;37.60;26.30;;;;;;5141971;27;20437;-88
2022/07/25 14:43:14;;;;;;;7.47;6.77;;;37.80;26.40;;;;;;5118646;27;20965;-88
2022/07/25 14:45:41;;;;;;;8.43;7.63;;;37.90;26.40;;;;;;5119625;27;20449;-88
2022/07/25 14:51:00;;;;;;;8.30;7.60;;;37.30;27.60;;;;;;5123367;27;20456;-87
2022/07/25 14:53:27;;;;;;;8.07;7.37;;;37.20;27.60;;;;;;5108103;27;20510;-87
2022/07/25 14:56:20;;;;;;;8.10;7.30;;;37.20;28.00;;;;;;5100526;27;20445;-90
2022/07/25 14:58:47;;;;;;;8.90;8.00;;;37.20;27.70;;;;;;5122494;27;20456;-88
2022/07/25 15:01:17;;;;;;;7.83;7.10;;;37.20;27.90;;;;;;5122415;27;20444;-87
2022/07/25 15:06:40;;;;;;;8.97;8.03;;;37.40;28.40;;;;;;5140978;27;20458;-87
2022/07/25 15:09:07;;;;;;;9.27;8.37;;;37.30;28.20;;;;;;5118716;27;20463;-87
2022/07/25 15:11:34;;;;;;;8.43;7.50;;;37.20;28.10;;;;;;5122567;27;20517;-88
2022/07/25 15:14:26;;;;;;;9.63;8.63;;;37.20;28.70;;;;;;5109046;27;20480;-87
2022/07/25 15:16:53;;;;;;;9.40;8.60;;;37.20;28.50;;;;;;5137190;27;20882;-88
2022/07/25 15:19:22;;;;;;;9.10;8.30;;;37.00;28.10;;;;;;5121359;27;20441;-87
2022/07/25 15:21:49;;;;;;;8.00;7.20;;;36.90;28.40;;;;;;5137077;27;20503;-88
2022/07/25 15:24:16;;;;;;;9.90;9.00;;;36.80;29.00;;;;;;5135524;27;20467;-88
2022/07/25 15:26:43;;;;;;;9.13;8.33;;;36.90;29.20;;;;;;5111865;27;20455;-87
2022/07/25 15:29:13;;;;;;;8.70;7.80;;;36.80;29.20;;;;;;5099565;27;20547;-87
2022/07/25 15:31:40;;;;;;;9.80;8.80;;;37.10;29.40;;;;;;5116856;27;20447;-87
2022/07/25 16:13:39;;;;;;;8.90;8.00;;;36.50;29.80;;;;;;5126548;27;20473;-91
2022/07/25 16:20:13;;;;;;;9.00;8.20;;;36.60;30.00;;;;;;5145510;27;21074;-88
2022/07/25 16:22:40;;;;;;;7.90;7.10;;;36.60;30.00;;;;;;5143781;27;20475;-89
2022/07/25 16:25:08;;;;;;;7.87;7.20;;;36.80;30.00;;;;;;5126702;27;20460;-88
2022/07/25 16:27:35;;;;;;;9.03;7.00;;;37.00;29.60;;;;;;5127138;27;20480;-88
2022/07/25 16:30:04;;;;;;;8.00;7.20;;;36.60;29.00;;;;;;5108346;27;20506;-86
2022/07/25 16:32:31;;;;;;;8.17;7.37;;;36.60;29.60;;;;;;5127025;27;20465;-88
2022/07/25 16:34:58;;;;;;;7.23;6.73;;;36.60;29.60;;;;;;5126182;27;20471;-89
2022/07/25 16:37:26;;;;;;;9.57;7.13;;;36.70;29.60;;;;;;5125739;27;20449;-89
2022/07/25 16:39:53;;;;;;;7.40;6.60;;;36.70;28.80;;;;;;5144667;27;20447;-90
2022/07/25 16:46:28;;;;;;;8.20;7.00;;;36.50;29.00;;;;;;5143535;27;21609;-89
2022/07/25 16:48:55;;;;;;;8.27;6.70;;;36.50;29.10;;;;;;5142395;27;20528;-88
2022/07/25 16:51:22;;;;;;;8.03;7.33;;;36.40;29.50;;;;;;5091617;27;20821;-87
2022/07/25 16:53:49;;;;;;;7.00;6.40;;;36.20;29.40;;;;;;5122285;27;20469;-89
2022/07/25 16:56:17;;;;;;;8.93;7.43;;;36.00;29.50;;;;;;5121626;27;20453;-88
2022/07/25 16:58:45;;;;;;;8.17;7.37;;;35.80;29.70;;;;;;5121080;27;20452;-88
2022/07/25 17:01:12;;;;;;;7.77;7.07;;;35.80;29.90;;;;;;5106709;27;20500;-88
2022/07/25 17:03:40;;;;;;;11.53;6.90;;;35.90;30.00;;;;;;5105752;27;21282;-89
2022/07/25 17:06:32;;;;;;;7.83;6.90;;;35.80;30.00;;;;;;5098559;27;20463;-89
2022/07/25 17:08:59;;;;;;;8.23;7.30;;;35.60;30.20;;;;;;5120381;27;20447;-89
2022/07/25 17:11:26;;;;;;;8.70;6.77;;;35.70;30.40;;;;;;5139663;27;20457;-88
2022/07/25 17:13:53;;;;;;;11.10;7.40;;;35.50;30.60;;;;;;5142557;27;21003;-89
2022/07/25 17:16:20;;;;;;;14.63;8.07;;;35.30;31.10;;;;;;5125895;27;20548;-91
2022/07/25 17:18:48;;;;;;;13.77;7.10;;;34.60;39.30;;;;;;5133725;27;20452;-89
2022/07/25 17:21:17;;;;;;;10.67;6.23;;;33.10;43.20;;;;;;5104157;27;20445;-88
2022/07/25 17:23:57;;;;;;;;;;;;;;;;;;;;;
2022/07/25 17:26:25;;;;;;;11.50;7.43;;;31.90;48.00;;;;;;5119689;27;20808;-88
2022/07/25 17:28:52;;;;;;;8.10;6.73;;;32.20;47.20;;;;;;5125221;27;20462;-89
2022/07/25 17:31:19;;;;;;;9.33;7.43;;;32.40;47.90;;;;;;5140437;27;20483;-88
2022/07/25 17:33:48;;;;;;;9.73;7.37;;;32.70;46.40;;;;;;5126554;27;20483;-89
2022/07/25 17:36:15;;;;;;;8.30;6.83;;;32.70;45.00;;;;;;5124371;27;20965;-88
2022/07/25 17:38:43;;;;;;;9.40;7.47;;;32.70;45.80;;;;;;5139192;27;20442;-89
2022/07/25 17:42:00;;;;;;;8.67;7.37;;;32.70;47.40;;;;;;5132019;27;20453;-89
2022/07/25 17:48:58;;;;;;;8.30;7.47;;;33.10;47.20;;;;;;5136069;27;20421;-89
2022/07/25 17:51:25;;;;;;;8.93;7.80;;;32.90;48.30;;;;;;5142012;27;20445;-90
2022/07/25 17:53:52;;;;;;;8.20;7.30;;;32.90;48.20;;;;;;5099599;27;20461;-91
2022/07/25 17:56:19;;;;;;;9.60;7.10;;;33.00;48.20;;;;;;5099891;27;20968;-89
2022/07/25 17:58:46;;;;;;;9.23;8.37;;;33.00;48.80;;;;;;5098641;27;20523;-91
2022/07/25 18:01:13;;;;;;;12.67;8.47;;;32.80;49.30;;;;;;5126776;27;20452;-88
2022/07/25 18:03:40;;;;;;;10.47;9.20;;;32.80;49.10;;;;;;5137333;27;22321;-88
2022/07/25 18:06:34;;;;;;;9.37;7.80;;;32.80;49.50;;;;;;5122668;27;20448;-87
2022/07/25 18:09:01;;;;;;;9.80;8.80;;;32.60;50.60;;;;;;5139246;27;20536;-87
2022/07/25 18:11:28;;;;;;;9.30;8.30;;;32.60;50.90;;;;;;5117722;27;20996;-88
2022/07/25 18:13:55;;;;;;;10.57;8.80;;;32.50;51.10;;;;;;5141038;27;21170;-86
2022/07/25 18:16:22;;;;;;;9.57;8.67;;;32.60;50.90;;;;;;5112451;27;20469;-88
2022/07/25 18:18:49;;;;;;;11.60;7.47;;;32.70;50.00;;;;;;5099351;27;20507;-88
2022/07/25 18:21:16;;;;;;;11.90;8.13;;;32.40;49.50;;;;;;5135774;27;20436;-87
2022/07/25 18:30:44;;;;;;;9.93;8.70;;;32.20;51.00;;;;;;5097039;27;20444;-88
2022/07/25 18:33:11;;;;;;;10.70;9.60;;;32.20;50.80;;;;;;5122565;27;20843;-88
2022/07/25 18:35:38;;;;;;;10.30;8.47;;;32.30;50.50;;;;;;5138542;27;21003;-87
2022/07/25 18:40:59;;;;;;;11.03;8.33;;;32.30;50.00;;;;;;5140143;27;20441;-87
2022/07/25 18:43:26;;;;;;;9.47;8.33;;;32.30;50.10;;;;;;5121177;27;20468;-87
2022/07/25 18:45:53;;;;;;;8.87;7.97;;;32.30;49.70;;;;;;5106326;27;20463;-89
2022/07/25 18:48:20;;;;;;;9.00;8.03;;;32.10;49.70;;;;;;5119066;27;20453;-87
2022/07/25 18:50:47;;;;;;;9.13;8.27;;;32.10;49.90;;;;;;5120810;27;20453;-88
2022/07/25 18:53:14;;;;;;;8.77;7.87;;;32.00;49.80;;;;;;5118583;27;20463;-87
2022/07/25 18:55:41;;;;;;;9.43;8.20;;;31.80;49.50;;;;;;5134136;27;20469;-88
2022/07/25 18:58:35;;;;;;;9.63;8.60;;;31.60;48.60;;;;;;5123527;27;20461;-88
2022/07/25 19:01:02;;;;;;;13.47;8.13;;;31.60;49.00;;;;;;5136159;27;20470;-88
2022/07/25 19:03:29;;;;;;;9.27;7.80;;;31.60;49.00;;;;;;5089456;27;20495;-91
2022/07/25 19:05:56;;;;;;;13.13;7.27;;;31.40;49.30;;;;;;5137481;27;20746;-88
2022/07/25 19:08:23;;;;;;;8.90;8.00;;;31.20;49.10;;;;;;5107429;27;20460;-88
2022/07/25 19:10:50;;;;;;;9.20;7.47;;;31.20;48.80;;;;;;5141321;27;20536;-87
2022/07/25 19:13:17;;;;;;;9.20;7.07;;;31.10;47.80;;;;;;5121804;27;20473;-87
2022/07/25 19:15:45;;;;;;;9.40;7.20;;;30.90;47.80;;;;;;5104750;27;20469;-88
2022/07/25 19:18:12;;;;;;;7.83;7.00;;;30.60;47.90;;;;;;5120082;27;20456;-87
2022/07/25 19:20:40;;;;;;;10.67;6.60;;;30.50;47.70;;;;;;5103499;27;20472;-86
2022/07/25 19:23:07;;;;;;;10.00;6.27;;;30.40;46.60;;;;;;5104236;27;20486;-89
2022/07/25 19:25:35;;;;;;;8.83;6.47;;;30.00;46.50;;;;;;5131196;27;20446;-87
2022/07/25 19:28:28;;;;;;;10.00;6.13;;;29.80;46.50;;;;;;5125875;27;20468;-87
2022/07/25 19:30:56;;;;;;;8.03;5.40;;;29.70;45.00;;;;;;5122847;27;20453;-89
2022/07/25 19:33:24;;;;;;;6.70;5.80;;;29.80;44.90;;;;;;5134890;27;20502;-88
2022/07/25 19:35:51;;;;;;;6.33;4.83;;;29.80;45.40;;;;;;5147871;27;20478;-89
2022/07/25 19:38:18;;;;;;;9.30;5.73;;;29.80;44.90;;;;;;5112167;27;20448;-88
2022/07/25 19:40:45;;;;;;;10.27;5.23;;;29.80;45.30;;;;;;5148426;27;20448;-90
2022/07/25 19:43:12;;;;;;;6.13;5.47;;;29.80;45.80;;;;;;5131007;27;20470;-89
2022/07/25 19:45:39;;;;;;;10.73;6.23;;;29.90;45.80;;;;;;5125884;27;20441;-89
2022/07/25 19:48:08;;;;;;;6.43;5.83;;;29.80;46.00;;;;;;5129323;27;20835;-88
2022/07/25 19:50:34;;;;;;;6.40;5.80;;;30.00;46.20;;;;;;5145262;27;20459;-88
2022/07/25 19:53:02;;;;;;;5.83;4.87;;;30.10;46.10;;;;;;5111671;27;20491;-89
2022/07/25 19:55:29;;;;;;;9.87;5.70;;;30.30;46.40;;;;;;5113803;27;20477;-88
2022/07/25 19:57:56;;;;;;;7.80;4.50;;;30.30;45.60;;;;;;5131451;27;20809;-88
2022/07/25 20:00:23;;;;;;;4.70;4.23;;;30.10;44.60;;;;;;5125248;27;20447;-88
2022/07/25 20:09:52;;;;;;;9.27;5.00;;;30.00;46.70;;;;;;5140811;27;20452;-88
2022/07/25 20:12:19;;;;;;;7.63;4.50;;;30.00;45.80;;;;;;5111449;27;20445;-87
2022/07/25 20:14:46;;;;;;;8.33;4.67;;;29.80;45.20;;;;;;5127763;27;20471;-87
2022/07/25 20:17:13;;;;;;;6.13;4.77;;;29.70;44.80;;;;;;5112722;27;20437;-89
2022/07/25 20:19:40;;;;;;;5.33;3.83;;;29.40;44.70;;;;;;5128749;27;20518;-88
2022/07/25 20:22:09;;;;;;;4.33;4.00;;;29.50;44.90;;;;;;5126867;27;20471;-87
2022/07/25 20:24:36;;;;;;;6.53;4.77;;;29.30;44.80;;;;;;5109342;27;20533;-87
2022/07/25 20:27:03;;;;;;;5.70;4.40;;;29.40;44.80;;;;;;5129631;27;21421;-87
2022/07/25 20:29:30;;;;;;;5.30;4.13;;;29.40;44.60;;;;;;5143009;27;20448;-88
2022/07/25 20:31:57;;;;;;;6.43;5.20;;;29.40;45.00;;;;;;5131655;27;20445;-90
2022/07/25 20:34:24;;;;;;;5.23;4.73;;;29.40;45.90;;;;;;5140419;27;20480;-88
2022/07/25 20:41:00;;;;;;;13.97;4.67;;;29.50;45.70;;;;;;5108276;27;20418;-87
2022/07/25 20:43:27;;;;;;;7.67;4.63;;;29.40;45.10;;;;;;5144093;27;20507;-88
2022/07/25 20:45:54;;;;;;;7.23;4.40;;;29.50;45.40;;;;;;5128712;27;20955;-88
2022/07/25 20:48:21;;;;;;;4.93;4.30;;;29.70;45.60;;;;;;5123686;27;20457;-89
2022/07/25 20:50:48;;;;;;;5.40;4.43;;;29.80;45.20;;;;;;5128278;27;20524;-89
2022/07/25 20:53:15;;;;;;;7.40;4.57;;;29.90;45.40;;;;;;5145116;27;20472;-90
2022/07/25 20:55:42;;;;;;;8.00;3.90;;;30.00;44.70;;;;;;5105679;27;20461;-88
2022/07/25 20:58:36;;;;;;;5.53;4.30;;;30.00;44.50;;;;;;5110020;27;20456;-89
2022/07/25 21:01:03;;;;;;;4.43;3.87;;;30.00;44.40;;;;;;5100395;27;20444;-88
2022/07/25 21:03:30;;;;;;;4.37;3.97;;;30.10;44.80;;;;;;5109369;27;20468;-88
2022/07/25 21:05:57;;;;;;;6.30;4.63;;;30.10;44.90;;;;;;5076346;27;20437;-89
2022/07/25 21:08:24;;;;;;;4.97;3.93;;;30.10;44.80;;;;;;5124980;27;20913;-89
2022/07/25 21:10:50;;;;;;;6.73;3.80;;;30.10;44.50;;;;;;5096094;27;20569;-87
2022/07/25 21:13:17;;;;;;;8.43;4.53;;;30.00;45.30;;;;;;5126360;27;20473;-89
2022/07/25 21:15:46;;;;;;;9.37;5.43;;;30.00;45.40;;;;;;5147303;27;20477;-88
2022/07/25 21:18:13;;;;;;;5.60;3.57;;;30.00;45.50;;;;;;5110967;27;20477;-88
2022/07/25 21:20:40;;;;;;;4.40;4.00;;;30.00;45.40;;;;;;5147351;27;22225;-89
2022/07/25 21:26:24;;;;;;;7.87;4.43;;;30.00;45.40;;;;;;5145440;27;20989;-88
2022/07/25 21:28:50;;;;;;;4.83;4.40;;;29.80;46.50;;;;;;5126802;27;20475;-86
2022/07/25 21:31:19;;;;;;;5.53;4.50;;;29.70;47.50;;;;;;5111415;27;20453;-88
2022/07/25 21:33:46;;;;;;;6.00;4.93;;;29.60;47.90;;;;;;5147722;27;20468;-89
2022/07/25 21:36:13;;;;;;;6.43;5.13;;;29.50;47.90;;;;;;5128255;27;20453;-89
2022/07/25 21:38:40;;;;;;;4.53;4.13;;;29.50;47.30;;;;;;5098409;27;20437;-88
2022/07/25 21:41:07;;;;;;;4.73;4.33;;;29.50;47.90;;;;;;5107513;27;20962;-88
2022/07/25 21:43:34;;;;;;;7.10;4.97;;;29.30;47.70;;;;;;5127574;27;20936;-88
2022/07/25 21:46:01;;;;;;;5.10;4.40;;;29.20;48.10;;;;;;5128208;27;20800;-89
2022/07/25 21:51:14;;;;;;;6.63;4.80;;;29.10;47.60;;;;;;5125736;27;20460;-88
2022/07/25 21:53:42;;;;;;;6.73;5.63;;;29.10;48.00;;;;;;5125927;27;20468;-88
2022/07/25 21:56:08;;;;;;;7.93;5.27;;;29.10;48.20;;;;;;5126272;27;20453;-88
2022/07/25 21:58:35;;;;;;;5.63;4.40;;;29.00;48.40;;;;;;5125863;27;20480;-89
2022/07/25 22:01:03;;;;;;;9.50;5.10;;;28.90;49.10;;;;;;5108269;27;21048;-88
2022/07/25 22:03:31;;;;;;;5.37;4.87;;;28.90;49.40;;;;;;5124508;27;20934;-89
2022/07/25 22:05:58;;;;;;;7.83;4.63;;;28.90;49.90;;;;;;5146691;27;20462;-90
2022/07/25 22:08:25;;;;;;;7.00;4.93;;;28.90;50.30;;;;;;5091619;27;20445;-88
2022/07/25 22:10:52;;;;;;;5.57;4.40;;;28.70;50.20;;;;;;5109601;27;20445;-89
2022/07/25 22:13:19;;;;;;;5.97;4.33;;;28.70;49.90;;;;;;5149080;27;20468;-88
2022/07/25 22:15:46;;;;;;;5.13;4.63;;;28.60;50.00;;;;;;5144514;27;20479;-88
2022/07/25 22:18:13;;;;;;;6.27;4.63;;;28.40;50.90;;;;;;5093069;27;20828;-88
2022/07/25 22:20:42;;;;;;;4.70;4.30;;;28.30;51.00;;;;;;5110373;27;20477;-90
2022/07/25 22:23:09;;;;;;;6.50;4.00;;;28.00;50.00;;;;;;5105908;27;20473;-90
2022/07/25 22:25:36;;;;;;;4.27;3.87;;;28.00;50.60;;;;;;5122081;27;20448;-87
2022/07/25 22:28:03;;;;;;;4.50;4.10;;;28.10;49.70;;;;;;5144724;27;20506;-89
2022/07/25 22:30:30;;;;;;;4.07;3.20;;;28.30;49.70;;;;;;5143619;27;20449;-89
2022/07/25 22:32:57;;;;;;;6.37;4.40;;;28.30;49.30;;;;;;5127011;27;20464;-88
2022/07/25 22:35:24;;;;;;;8.97;3.80;;;28.40;48.60;;;;;;5136057;27;20560;-88
2022/07/25 22:37:52;;;;;;;5.47;3.93;;;28.50;48.50;;;;;;5109221;27;20457;-88
2022/07/25 22:40:20;;;;;;;6.23;3.63;;;28.50;48.20;;;;;;5115183;27;20453;-88